Time;durP1;ratioP1;P1;durP2;ratioP2;P2;SDS_P1;SDS_P2;PMS_P1;PMS_P2;Temp;Humidity;BMP_temperature;BMP_pressure;BME280_temperature;BME280_humidity;BME280_pressure;Samples;Min_cycle;Max_cycle;Signal;HPM_P1;HPM_P2
2022/05/29 00:00:38;;;;;;;;;;;;;;;27.83;36.26;100216.84;5078906;28;728;-43
2022/05/29 00:03:03;;;;;;;;;;;;;;;27.83;35.62;100208.72;5079121;28;852;-42
2022/05/29 00:05:28;;;;;;;;;;;;;;;27.85;36.04;100209.38;5078859;28;820;-42
2022/05/29 00:07:54;;;;;;;;;;;;;;;27.84;36.25;100207.69;5079141;28;888;-42
2022/05/29 00:10:19;;;;;;;;;;;;;;;27.85;36.31;100200.44;5078866;28;790;-45
2022/05/29 00:12:44;;;;;;;;;;;;;;;27.85;36.37;100213.94;5078750;28;1905;-42
2022/05/29 00:15:11;;;;;;;;;;;;;;;27.80;36.35;100219.94;5078729;28;951;-44
2022/05/29 00:17:36;;;;;;;;;;;;;;;27.81;35.79;100210.78;5077587;28;806;-42
2022/05/29 00:20:01;;;;;;;;;;;;;;;27.80;35.81;100203.72;5078747;28;822;-43
2022/05/29 00:22:27;;;;;;;;;;;;;;;27.81;36.07;100197.28;5078514;28;1281;-42
2022/05/29 00:24:52;;;;;;;;;;;;;;;27.77;35.82;100197.88;5078584;28;888;-42
2022/05/29 00:27:17;;;;;;;;;;;;;;;27.81;36.12;100191.06;5077125;28;1064;-42
2022/05/29 00:29:43;;;;;;;;;;;;;;;27.81;35.93;100189.19;5078299;28;876;-44
2022/05/29 00:32:08;;;;;;;;;;;;;;;27.78;36.36;100177.97;5078329;28;1917;-42
2022/05/29 00:34:34;;;;;;;;;;;;;;;27.78;36.28;100183.38;5078369;28;908;-43
2022/05/29 00:36:59;;;;;;;;;;;;;;;27.78;36.14;100172.56;5078495;28;801;-42
2022/05/29 00:39:24;;;;;;;;;;;;;;;27.73;36.06;100190.19;5078616;28;790;-44
2022/05/29 00:41:50;;;;;;;;;;;;;;;27.74;36.36;100189.16;5078151;28;909;-42
2022/05/29 00:44:16;;;;;;;;;;;;;;;27.73;36.33;100186.66;5077632;28;868;-42
2022/05/29 00:46:44;;;;;;;;;;;;;;;27.72;36.18;100191.22;5077928;28;793;-42
2022/05/29 00:49:10;;;;;;;;;;;;;;;27.71;36.19;100178.75;5078272;28;825;-43
2022/05/29 00:51:36;;;;;;;;;;;;;;;27.72;36.10;100188.53;5077989;28;1069;-44
2022/05/29 00:54:02;;;;;;;;;;;;;;;27.70;35.87;100196.00;5059708;28;1897;-43
2022/05/29 00:56:27;;;;;;;;;;;;;;;27.69;35.94;100193.50;5078082;28;769;-42
2022/05/29 00:58:52;;;;;;;;;;;;;;;27.65;36.21;100189.50;5071158;28;898;-42
2022/05/29 01:01:18;;;;;;;;;;;;;;;27.65;36.05;100187.63;5059703;28;1116;-42
2022/05/29 01:03:43;;;;;;;;;;;;;;;27.66;36.35;100191.16;5077522;28;769;-42
2022/05/29 01:06:08;;;;;;;;;;;;;;;27.65;36.08;100189.50;5078204;28;742;-41
2022/05/29 01:08:34;;;;;;;;;;;;;;;27.63;35.93;100182.44;5077258;28;896;-41
2022/05/29 01:11:00;;;;;;;;;;;;;;;27.63;35.84;100178.88;5077290;28;806;-42
2022/05/29 01:13:37;;;;;;;;;;;;;;;27.63;36.46;100176.19;5077682;28;1906;-41
2022/05/29 01:16:02;;;;;;;;;;;;;;;27.60;36.67;100177.44;5077107;28;982;-41
2022/05/29 01:18:40;;;;;;;;;;;;;;;27.61;36.32;100172.88;5077340;28;813;-42
2022/05/29 01:21:20;;;;;;;;;;;;;;;27.59;35.97;100183.03;5071113;28;770;-41
2022/05/29 01:23:50;;;;;;;;;;;;;;;27.59;35.92;100174.94;5077643;28;824;-41
2022/05/29 01:26:31;;;;;;;;;;;;;;;27.63;35.62;100184.28;5076962;28;1210;-42
2022/05/29 01:29:03;;;;;;;;;;;;;;;27.63;35.92;100205.91;5077367;28;932;-41
2022/05/29 01:31:47;;;;;;;;;;;;;;;27.64;36.31;100215.69;5076686;28;898;-41
2022/05/29 01:34:12;;;;;;;;;;;;;;;27.62;36.71;100215.91;5070476;28;1902;-41
2022/05/29 01:36:38;;;;;;;;;;;;;;;27.65;36.46;100214.66;5077371;28;774;-42
2022/05/29 01:39:10;;;;;;;;;;;;;;;27.60;36.33;100207.16;5077081;28;884;-42
2022/05/29 01:41:36;;;;;;;;;;;;;;;27.59;36.73;100202.75;5052340;28;917;-41
2022/05/29 01:44:01;;;;;;;;;;;;;;;27.62;36.97;100213.19;5076907;28;833;-42
2022/05/29 01:46:29;;;;;;;;;;;;;;;27.65;36.77;100219.22;5076389;28;841;-41
2022/05/29 01:49:13;;;;;;;;;;;;;;;27.65;36.85;100230.00;5077130;28;750;-42
2022/05/29 01:51:59;;;;;;;;;;;;;;;27.62;37.10;100220.44;5059614;28;751;-43
2022/05/29 01:54:26;;;;;;;;;;;;;;;27.60;36.92;100223.34;5076005;28;1214;-42
2022/05/29 01:56:57;;;;;;;;;;;;;;;27.60;37.18;100227.91;5058953;28;784;-41
2022/05/29 01:59:22;;;;;;;;;;;;;;;27.63;37.35;100228.34;5058837;28;763;-42
2022/05/29 02:01:48;;;;;;;;;;;;;;;27.61;37.55;100214.22;5076110;28;883;-43
2022/05/29 02:04:17;;;;;;;;;;;;;;;27.65;37.29;100219.22;5058895;28;793;-42
2022/05/29 02:09:33;;;;;;;;;;;;;;;27.63;37.37;100205.91;5070044;28;675;-43
2022/05/29 02:11:58;;;;;;;;;;;;;;;27.69;37.40;100207.84;5076102;28;2003;-44
2022/05/29 02:14:25;;;;;;;;;;;;;;;27.70;37.40;100197.84;5076441;28;794;-42
2022/05/29 02:16:53;;;;;;;;;;;;;;;27.69;37.82;100207.00;5076319;28;981;-43
2022/05/29 02:19:34;;;;;;;;;;;;;;;27.68;37.72;100202.59;5058432;28;818;-42
2022/05/29 02:22:00;;;;;;;;;;;;;;;27.65;37.88;100205.69;5054245;28;786;-42
2022/05/29 02:24:27;;;;;;;;;;;;;;;27.66;37.82;100193.88;5075844;28;845;-44
2022/05/29 02:27:18;;;;;;;;;;;;;;;27.63;37.85;100187.81;5057927;28;1177;-42
2022/05/29 02:29:44;;;;;;;;;;;;;;;27.62;37.59;100186.16;5037553;28;1221;-42
2022/05/29 02:32:17;;;;;;;;;;;;;;;27.64;37.90;100196.78;5075994;28;1918;-41
2022/05/29 02:34:57;;;;;;;;;;;;;;;27.65;37.64;100206.53;5058089;28;884;-41
2022/05/29 02:37:35;;;;;;;;;;;;;;;27.64;37.95;100199.47;5069998;28;769;-42
2022/05/29 02:40:00;;;;;;;;;;;;;;;27.63;38.45;100222.94;5057641;28;802;-43
2022/05/29 02:42:46;;;;;;;;;;;;;;;27.64;38.12;100213.00;5076206;28;895;-42
2022/05/29 02:45:43;;;;;;;;;;;;;;;27.65;38.13;100208.41;5075288;28;1663;-43
2022/05/29 02:48:27;;;;;;;;;;;;;;;27.62;38.33;100215.91;5031606;28;1139;-41
2022/05/29 02:50:58;;;;;;;;;;;;;;;27.61;38.39;100219.59;5081953;28;883;-42
2022/05/29 02:53:24;;;;;;;;;;;;;;;27.63;38.74;100219.41;5082842;28;1964;-42
2022/05/29 02:55:50;;;;;;;;;;;;;;;27.65;38.62;100216.50;5064506;28;873;-42
2022/05/29 02:58:25;;;;;;;;;;;;;;;27.69;38.81;100220.53;5082706;28;746;-42
2022/05/29 03:00:54;;;;;;;;;;;;;;;27.65;38.92;100230.84;5082366;28;714;-42
2022/05/29 03:03:31;;;;;;;;;;;;;;;27.67;39.09;100233.34;5064104;28;782;-41
2022/05/29 03:06:00;;;;;;;;;;;;;;;27.63;39.26;100222.09;5083158;28;840;-41
2022/05/29 03:08:44;;;;;;;;;;;;;;;27.66;39.25;100226.28;5082518;28;896;-42
2022/05/29 03:11:20;;;;;;;;;;;;;;;27.69;39.59;100236.72;5077888;28;798;-39
2022/05/29 03:13:46;;;;;;;;;;;;;;;27.82;38.82;100239.50;5064115;28;1990;-39
2022/05/29 03:16:15;;;;;;;;;;;;;;;27.86;38.88;100248.06;5063221;28;982;-40
2022/05/29 03:18:42;;;;;;;;;;;;;;;27.70;39.12;100250.03;5064886;28;854;-42
2022/05/29 03:21:07;;;;;;;;;;;;;;;27.68;37.42;100254.81;5064515;28;964;-40
2022/05/29 03:23:51;;;;;;;;;;;;;;;27.74;38.63;100253.19;5082382;28;888;-40
2022/05/29 03:26:21;;;;;;;;;;;;;;;27.77;38.61;100233.88;5082245;28;1207;-43
2022/05/29 03:28:47;;;;;;;;;;;;;;;27.76;38.80;100229.47;5062847;28;988;-39
2022/05/29 03:31:14;;;;;;;;;;;;;;;27.75;38.98;100223.25;5063628;28;1114;-41
2022/05/29 03:33:40;;;;;;;;;;;;;;;27.80;38.63;100229.91;5081760;28;1963;-41
2022/05/29 03:36:07;;;;;;;;;;;;;;;27.55;39.49;100258.22;5082272;28;1180;-38
2022/05/29 03:38:33;;;;;;;;;;;;;;;26.93;41.50;100268.72;5082209;28;1067;-38
2022/05/29 03:40:59;;;;;;;;;;;;;;;26.95;41.56;100282.88;5082103;28;836;-38
2022/05/29 03:43:24;;;;;;;;;;;;;;;26.97;41.65;100288.91;5063971;28;856;-37
2022/05/29 03:45:50;;;;;;;;;;;;;;;26.87;41.75;100294.63;5081615;28;832;-36
2022/05/29 03:48:15;;;;;;;;;;;;;;;26.88;41.91;100301.69;5082582;28;902;-37
2022/05/29 03:50:40;;;;;;;;;;;;;;;24.25;48.88;100292.03;5080588;28;1369;-38
2022/05/29 03:53:05;;;;;;;;;;;;;;;25.56;45.83;100277.00;5074215;28;1914;-41
2022/05/29 03:55:31;;;;;;;;;;;;;;;26.29;43.82;100277.38;5080840;28;1470;-40
2022/05/29 03:57:56;;;;;;;;;;;;;;;25.98;44.66;100284.66;5077382;28;1394;-40
2022/05/29 04:00:22;;;;;;;;;;;;;;;26.36;43.97;100281.00;5080184;28;844;-40
2022/05/29 04:02:47;;;;;;;;;;;;;;;26.68;42.90;100291.53;5077011;28;1536;-40
2022/05/29 04:05:15;;;;;;;;;;;;;;;26.67;43.08;100286.31;5078927;28;857;-40
2022/05/29 04:13:09;;;;;;;;;;;;;;;26.66;42.71;100309.75;5078912;28;1901;-40
2022/05/29 04:15:35;;;;;;;;;;;;;;;26.78;42.34;100316.34;5061120;28;828;-40
2022/05/29 04:18:00;;;;;;;;;;;;;;;26.73;42.34;100309.84;5078648;28;817;-40
2022/05/29 04:20:26;;;;;;;;;;;;;;;26.81;41.98;100308.91;5078077;28;748;-40
2022/05/29 04:22:51;;;;;;;;;;;;;;;26.82;41.71;100322.19;5078339;28;829;-40
2022/05/29 04:25:16;;;;;;;;;;;;;;;26.93;41.77;100339.75;5078645;28;805;-40
2022/05/29 04:27:41;;;;;;;;;;;;;;;27.04;41.63;100361.88;5078558;28;1035;-40
2022/05/29 04:30:07;;;;;;;;;;;;;;;27.06;41.40;100367.94;5078470;28;992;-40
2022/05/29 04:35:16;;;;;;;;;;;;;;;26.60;43.28;100359.09;5078556;28;825;-40
2022/05/29 04:37:42;;;;;;;;;;;;;;;27.10;41.73;100361.13;5078121;28;1562;-40
2022/05/29 04:40:08;;;;;;;;;;;;;;;27.41;40.65;100359.13;5078030;28;864;-40
2022/05/29 04:42:33;;;;;;;;;;;;;;;27.51;40.99;100349.63;5078108;28;906;-40
2022/05/29 04:44:58;;;;;;;;;;;;;;;27.56;40.64;100351.75;5077955;28;889;-40
2022/05/29 04:47:24;;;;;;;;;;;;;;;27.56;40.70;100356.34;5077604;28;834;-40
2022/05/29 04:49:49;;;;;;;;;;;;;;;27.61;40.36;100380.91;5078253;28;800;-40
2022/05/29 04:52:14;;;;;;;;;;;;;;;27.58;40.05;100376.72;5078162;28;1910;-39
2022/05/29 04:54:40;;;;;;;;;;;;;;;27.61;40.14;100386.31;5077853;28;797;-40
2022/05/29 04:57:06;;;;;;;;;;;;;;;27.66;39.82;100386.53;5078030;28;869;-39
2022/05/29 04:59:31;;;;;;;;;;;;;;;27.58;39.11;100395.63;5078073;28;832;-39
2022/05/29 05:01:59;;;;;;;;;;;;;;;27.64;39.01;100394.03;5077299;28;1045;-39
2022/05/29 05:04:25;;;;;;;;;;;;;;;27.66;39.76;100388.41;5078075;28;924;-40
2022/05/29 05:06:53;;;;;;;;;;;;;;;27.71;38.62;100381.41;5078013;28;745;-39
2022/05/29 05:09:18;;;;;;;;;;;;;;;27.75;38.46;100387.25;5077672;28;881;-39
2022/05/29 05:11:43;;;;;;;;;;;;;;;27.73;37.85;100378.50;5076136;28;904;-39
2022/05/29 05:14:08;;;;;;;;;;;;;;;27.86;38.04;100394.81;5077551;28;1886;-39
2022/05/29 05:16:34;;;;;;;;;;;;;;;27.90;37.72;100402.53;5076804;28;948;-39
2022/05/29 05:18:59;;;;;;;;;;;;;;;28.04;37.44;100403.47;5077908;28;793;-39
2022/05/29 05:21:24;;;;;;;;;;;;;;;28.15;36.76;100402.94;5076952;28;822;-38
2022/05/29 05:23:50;;;;;;;;;;;;;;;28.13;36.98;100405.00;5076623;28;812;-38
2022/05/29 05:26:19;;;;;;;;;;;;;;;28.15;36.79;100397.53;5077473;28;1078;-39
2022/05/29 05:28:44;;;;;;;;;;;;;;;28.08;36.57;100402.88;5070749;28;845;-40
2022/05/29 05:31:09;;;;;;;;;;;;;;;28.04;36.38;100401.63;5076354;28;861;-39
2022/05/29 05:33:35;;;;;;;;;;;;;;;27.99;36.87;100398.69;5076848;28;1979;-38
2022/05/29 05:36:00;;;;;;;;;;;;;;;28.00;36.53;100392.22;5076760;28;889;-40
2022/05/29 05:38:25;;;;;;;;;;;;;;;27.99;36.58;100387.88;5073757;28;1374;-39
2022/05/29 05:40:51;;;;;;;;;;;;;;;28.03;36.55;100391.81;5072256;28;1147;-39
2022/05/29 05:43:19;;;;;;;;;;;;;;;28.02;35.86;100400.13;5075730;28;1164;-39
2022/05/29 05:45:44;;;;;;;;;;;;;;;28.05;36.13;100411.41;5074562;28;1203;-38
2022/05/29 05:48:09;;;;;;;;;;;;;;;28.06;35.84;100414.94;5076144;28;1243;-39
2022/05/29 05:50:36;;;;;;;;;;;;;;;28.11;35.68;100424.13;5075879;28;1250;-38
2022/05/29 05:53:01;;;;;;;;;;;;;;;28.15;35.78;100435.38;5053596;28;1985;-39
2022/05/29 05:55:27;;;;;;;;;;;;;;;28.22;35.79;100438.13;5075598;28;1281;-39
2022/05/29 05:57:55;;;;;;;;;;;;;;;28.24;36.27;100436.88;5076309;28;770;-39
2022/05/29 06:00:20;;;;;;;;;;;;;;;28.31;36.57;100436.13;5076516;28;925;-38
2022/05/29 06:02:46;;;;;;;;;;;;;;;28.32;35.99;100441.31;5076615;28;845;-39
2022/05/29 06:05:12;;;;;;;;;;;;;;;28.40;36.29;100434.94;5076733;28;749;-40
2022/05/29 06:07:37;;;;;;;;;;;;;;;28.44;35.41;100420.00;5076722;28;945;-40
2022/05/29 06:10:03;;;;;;;;;;;;;;;28.47;35.10;100429.56;5076287;28;816;-39
2022/05/29 06:12:28;;;;;;;;;;;;;;;28.52;35.25;100426.25;5076480;28;1894;-39
2022/05/29 06:14:54;;;;;;;;;;;;;;;28.52;35.47;100428.97;5076029;28;826;-39
2022/05/29 06:17:20;;;;;;;;;;;;;;;28.52;35.41;100429.81;5075821;28;1547;-38
2022/05/29 06:19:45;;;;;;;;;;;;;;;28.54;35.34;100438.56;5076689;28;817;-39
2022/05/29 06:22:10;;;;;;;;;;;;;;;28.51;34.85;100438.94;5076493;28;912;-39
2022/05/29 06:24:36;;;;;;;;;;;;;;;28.55;34.99;100437.50;5075835;28;801;-39
2022/05/29 06:27:01;;;;;;;;;;;;;;;28.59;34.89;100443.38;5075994;28;1184;-39
2022/05/29 06:29:27;;;;;;;;;;;;;;;28.62;35.14;100434.84;5076169;28;725;-41
2022/05/29 06:31:53;;;;;;;;;;;;;;;28.67;34.96;100432.38;5074586;28;1214;-39
2022/05/29 06:34:19;;;;;;;;;;;;;;;28.69;34.70;100434.88;5075854;28;1901;-38
2022/05/29 06:36:45;;;;;;;;;;;;;;;28.67;34.94;100418.84;5075912;28;932;-39
2022/05/29 06:39:10;;;;;;;;;;;;;;;28.71;35.06;100409.25;5073383;28;1413;-40
2022/05/29 06:41:39;;;;;;;;;;;;;;;28.52;34.49;100416.28;5075464;28;1474;-39
2022/05/29 06:44:04;;;;;;;;;;;;;;;28.54;34.65;100408.78;5075750;28;877;-40
2022/05/29 06:46:29;;;;;;;;;;;;;;;28.56;35.12;100414.00;5076344;28;1413;-39
2022/05/29 06:48:55;;;;;;;;;;;;;;;28.66;35.05;100422.56;5076297;28;853;-39
2022/05/29 06:51:22;;;;;;;;;;;;;;;28.46;32.10;100412.47;5076019;28;840;-38
2022/05/29 06:53:49;;;;;;;;;;;;;;;28.20;27.97;100402.31;5073634;28;1953;-39
2022/05/29 06:56:14;;;;;;;;;;;;;;;28.27;28.50;100395.09;5074875;28;1187;-38
2022/05/29 06:58:40;;;;;;;;;;;;;;;28.51;28.57;100401.06;5076245;28;743;-38
2022/05/29 07:09:17;;;;;;;;;;;;;;;28.58;29.47;100361.34;5071941;28;1286;-38
2022/05/29 07:11:43;;;;;;;;;;;;;;;28.59;29.70;100346.75;5074133;28;1267;-38
2022/05/29 07:14:08;;;;;;;;;;;;;;;28.63;30.04;100355.31;5056936;28;1897;-39
2022/05/29 07:16:33;;;;;;;;;;;;;;;28.68;29.96;100344.72;5056845;28;1258;-39
2022/05/29 07:18:59;;;;;;;;;;;;;;;28.67;29.62;100342.22;5075173;28;1266;-39
2022/05/29 07:21:24;;;;;;;;;;;;;;;28.70;28.97;100347.22;5075721;28;1314;-39
2022/05/29 07:23:50;;;;;;;;;;;;;;;28.69;29.35;100343.69;5074447;28;1184;-38
2022/05/29 07:26:16;;;;;;;;;;;;;;;28.68;28.88;100341.16;5071566;28;1489;-38
2022/05/29 07:28:41;;;;;;;;;;;;;;;28.63;31.73;100332.84;5072679;28;1290;-38
2022/05/29 07:31:07;;;;;;;;;;;;;;;28.53;30.03;100314.31;5073463;28;1334;-37
2022/05/29 07:33:32;;;;;;;;;;;;;;;28.69;28.57;100291.44;5075251;28;1973;-38
2022/05/29 07:35:59;;;;;;;;;;;;;;;28.79;29.36;100277.50;5078009;28;718;-38
2022/05/29 07:38:25;;;;;;;;;;;;;;;28.77;30.72;100250.63;5073057;28;889;-38
2022/05/29 07:40:50;;;;;;;;;;;;;;;28.82;31.47;100233.78;5079900;28;805;-38
2022/05/29 07:43:18;;;;;;;;;;;;;;;28.82;31.52;100196.72;5061380;28;798;-38
2022/05/29 07:45:45;;;;;;;;;;;;;;;28.79;32.11;100170.06;5079465;28;904;-38
2022/05/29 07:48:11;;;;;;;;;;;;;;;28.79;32.27;100175.47;5079541;28;933;-37
2022/05/29 07:50:36;;;;;;;;;;;;;;;28.79;32.34;100170.06;5079695;28;729;-37
2022/05/29 07:53:02;;;;;;;;;;;;;;;28.81;32.00;100130.06;5078947;28;1897;-37
2022/05/29 07:55:27;;;;;;;;;;;;;;;28.77;33.00;100120.72;5079000;28;890;-38
2022/05/29 07:57:53;;;;;;;;;;;;;;;28.71;33.29;100154.03;5079495;28;926;-37
2022/05/29 08:00:19;;;;;;;;;;;;;;;28.83;32.89;100168.59;5079238;28;940;-38
2022/05/29 08:02:44;;;;;;;;;;;;;;;28.97;32.20;100179.44;5078850;28;761;-42
2022/05/29 08:05:10;;;;;;;;;;;;;;;28.96;32.46;100172.34;5079154;28;981;-41
2022/05/29 08:07:36;;;;;;;;;;;;;;;28.93;32.52;100173.59;5079507;28;816;-42
2022/05/29 08:10:01;;;;;;;;;;;;;;;28.92;32.17;100171.09;5078105;28;911;-41
2022/05/29 08:12:26;;;;;;;;;;;;;;;28.94;32.21;100182.53;5078604;28;1898;-41
2022/05/29 08:14:51;;;;;;;;;;;;;;;28.91;32.28;100181.06;5078888;28;838;-41
2022/05/29 08:17:17;;;;;;;;;;;;;;;28.92;32.43;100185.47;5078090;28;912;-43
2022/05/29 08:19:42;;;;;;;;;;;;;;;28.93;32.58;100180.88;5078493;28;928;-43
2022/05/29 08:22:07;;;;;;;;;;;;;;;29.01;31.97;100177.97;5076706;28;1222;-39
2022/05/29 08:33:05;;;;;;;;;;;;;;;29.02;32.25;100219.44;5076941;28;1959;-39
2022/05/29 08:35:30;;;;;;;;;;;;;;;29.06;32.05;100213.38;5076963;28;1246;-39
2022/05/29 08:37:56;;;;;;;;;;;;;;;29.07;32.05;100231.31;5077849;28;1107;-39
2022/05/29 08:40:21;;;;;;;;;;;;;;;29.07;32.36;100231.31;5077568;28;1239;-39
2022/05/29 08:42:46;;;;;;;;;;;;;;;29.08;32.11;100259.22;5059441;28;1366;-39
2022/05/29 08:45:14;;;;;;;;;;;;;;;29.09;32.31;100269.81;5077480;28;1235;-39
2022/05/29 08:47:40;;;;;;;;;;;;;;;29.10;31.83;100273.38;5074110;28;1223;-39
2022/05/29 08:50:06;;;;;;;;;;;;;;;29.10;31.72;100273.38;5059800;28;1299;-39
2022/05/29 08:52:34;;;;;;;;;;;;;;;29.04;31.68;100260.69;5073685;28;1902;-40
2022/05/29 08:55:12;;;;;;;;;;;;;;;28.97;32.26;100252.56;5078209;28;893;-40
2022/05/29 08:57:53;;;;;;;;;;;;;;;29.11;31.58;100245.28;5077929;28;742;-40
2022/05/29 09:00:18;;;;;;;;;;;;;;;29.22;31.67;100246.50;5059442;28;905;-40
2022/05/29 09:02:50;;;;;;;;;;;;;;;29.26;31.56;100244.22;5077661;28;838;-40
2022/05/29 09:05:27;;;;;;;;;;;;;;;29.31;31.58;100249.84;5055015;28;1193;-40
2022/05/29 09:07:53;;;;;;;;;;;;;;;29.34;31.59;100258.34;5055826;28;1240;-40
2022/05/29 09:10:20;;;;;;;;;;;;;;;29.29;30.77;100268.16;5054003;28;1506;-41
2022/05/29 09:12:47;;;;;;;;;;;;;;;29.15;31.23;100281.72;5074050;28;1928;-41
2022/05/29 09:15:12;;;;;;;;;;;;;;;29.28;30.96;100291.72;5076988;28;1092;-41
2022/05/29 09:17:38;;;;;;;;;;;;;;;29.38;30.88;100295.88;5076712;28;1167;-39
2022/05/29 09:20:03;;;;;;;;;;;;;;;29.49;30.26;100299.81;5076506;28;1310;-41
2022/05/29 09:22:33;;;;;;;;;;;;;;;29.50;29.66;100302.31;5076864;28;840;-40
2022/05/29 09:25:04;;;;;;;;;;;;;;;29.50;29.50;100305.03;5057985;28;829;-41
2022/05/29 09:27:30;;;;;;;;;;;;;;;29.46;29.87;100314.63;5075873;28;1127;-41
2022/05/29 09:29:55;;;;;;;;;;;;;;;29.42;29.69;100313.38;5075047;28;1223;-41
2022/05/29 09:32:27;;;;;;;;;;;;;;;29.23;30.83;100305.03;5075826;28;1968;-41
2022/05/29 09:35:06;;;;;;;;;;;;;;;29.02;31.54;100308.78;5076645;28;1084;-41
2022/05/29 09:37:44;;;;;;;;;;;;;;;28.99;31.13;100309.19;5058702;28;1251;-41
2022/05/29 09:40:21;;;;;;;;;;;;;;;28.96;31.36;100315.84;5073147;28;1148;-41
2022/05/29 09:42:48;;;;;;;;;;;;;;;29.03;30.80;100319.41;5075709;28;1263;-40
2022/05/29 09:45:25;;;;;;;;;;;;;;;29.04;31.34;100325.66;5073320;28;1203;-40
2022/05/29 09:50:41;;;;;;;;;;;;;;;29.17;30.10;100330.25;5060417;28;1208;-40
2022/05/29 09:53:10;;;;;;;;;;;;;;;29.30;29.88;100329.44;5073724;28;1910;-40
2022/05/29 09:55:37;;;;;;;;;;;;;;;29.34;29.58;100328.78;5058322;28;1310;-40
2022/05/29 09:58:08;;;;;;;;;;;;;;;29.35;29.68;100329.63;5072288;28;992;-40
2022/05/29 10:00:36;;;;;;;;;;;;;;;29.41;29.35;100331.50;5072754;28;1251;-40
2022/05/29 10:03:01;;;;;;;;;;;;;;;29.34;29.31;100333.41;5075137;28;1519;-40
2022/05/29 10:05:37;;;;;;;;;;;;;;;29.33;29.54;100335.25;5057958;28;1298;-39
2022/05/29 10:08:19;;;;;;;;;;;;;;;29.30;29.72;100338.41;5056170;28;1302;-40
2022/05/29 10:10:44;;;;;;;;;;;;;;;29.00;26.45;100338.78;5074927;28;1196;-37
2022/05/29 10:13:09;;;;;;;;;;;;;;;29.17;27.12;100341.94;5073102;28;1902;-40
2022/05/29 10:15:39;;;;;;;;;;;;;;;29.20;29.46;100354.22;5072129;28;1076;-40
2022/05/29 10:18:24;;;;;;;;;;;;;;;29.26;30.11;100352.56;5075215;28;1325;-39
2022/05/29 10:20:50;;;;;;;;;;;;;;;29.24;30.40;100355.47;5059755;28;1817;-39
2022/05/29 10:23:32;;;;;;;;;;;;;;;29.31;30.43;100355.50;5055131;28;1241;-39
2022/05/29 10:25:58;;;;;;;;;;;;;;;29.25;30.71;100351.72;5056424;28;1288;-40
2022/05/29 10:28:28;;;;;;;;;;;;;;;29.33;30.81;100337.97;5056074;28;1223;-39
2022/05/29 10:30:55;;;;;;;;;;;;;;;29.38;30.59;100345.47;5074314;28;1203;-40
2022/05/29 10:33:21;;;;;;;;;;;;;;;29.38;30.44;100334.63;5076665;28;1913;-39
2022/05/29 10:35:46;;;;;;;;;;;;;;;29.39;30.94;100338.19;5056731;28;805;-39
2022/05/29 10:38:32;;;;;;;;;;;;;;;29.37;30.70;100326.72;5057115;28;1112;-38
2022/05/29 10:40:58;;;;;;;;;;;;;;;29.23;31.65;100324.00;5069521;28;1853;-39
2022/05/29 10:43:42;;;;;;;;;;;;;;;29.25;31.46;100316.50;5075597;28;1413;-39
2022/05/29 10:46:15;;;;;;;;;;;;;;;29.28;31.43;100302.53;5075481;28;1382;-39
2022/05/29 10:48:59;;;;;;;;;;;;;;;29.35;31.30;100302.53;5073693;28;1448;-39
2022/05/29 10:51:24;;;;;;;;;;;;;;;29.33;31.53;100308.19;5071613;28;1441;-38
2022/05/29 10:54:05;;;;;;;;;;;;;;;29.33;31.56;100305.47;5073899;28;1902;-39
2022/05/29 10:56:44;;;;;;;;;;;;;;;29.34;31.17;100298.19;5076239;28;893;-38
2022/05/29 10:59:10;;;;;;;;;;;;;;;29.37;31.67;100295.03;5058074;28;922;-39
2022/05/29 11:04:56;;;;;;;;;;;;;;;29.36;31.55;100285.25;5072018;28;676;-38
2022/05/29 11:07:33;;;;;;;;;;;;;;;29.29;30.58;100277.13;5075400;28;824;-38
2022/05/29 11:09:59;;;;;;;;;;;;;;;29.21;30.84;100264.63;5076010;28;833;-39
2022/05/29 11:12:27;;;;;;;;;;;;;;;29.30;31.91;100265.25;5080181;28;1902;-41
2022/05/29 11:14:53;;;;;;;;;;;;;;;29.31;31.93;100268.81;5062289;28;967;-39
2022/05/29 11:17:25;;;;;;;;;;;;;;;29.30;32.40;100264.41;5079461;28;1196;-41
2022/05/29 11:20:09;;;;;;;;;;;;;;;29.21;32.42;100248.38;5060965;28;877;-38
2022/05/29 11:22:46;;;;;;;;;;;;;;;29.26;32.54;100241.50;5061820;28;896;-40
2022/05/29 11:25:30;;;;;;;;;;;;;;;29.21;32.66;100240.25;5079570;28;822;-38
2022/05/29 11:27:59;;;;;;;;;;;;;;;29.23;32.70;100242.75;5079826;28;1241;-39
2022/05/29 11:30:41;;;;;;;;;;;;;;;29.25;32.69;100237.13;5061324;28;910;-39
2022/05/29 11:33:25;;;;;;;;;;;;;;;29.21;32.85;100237.53;5073593;28;1914;-39
2022/05/29 11:36:02;;;;;;;;;;;;;;;29.20;32.78;100235.88;5079729;28;900;-40
2022/05/29 11:38:40;;;;;;;;;;;;;;;29.22;32.89;100230.25;5079312;28;727;-39
2022/05/29 11:41:11;;;;;;;;;;;;;;;29.19;32.95;100234.22;5079266;28;947;-39
2022/05/29 11:43:50;;;;;;;;;;;;;;;29.18;33.04;100235.25;5061281;28;951;-39
2022/05/29 11:52:37;;;;;;;;;;;;;;;29.19;32.96;100236.94;5077026;28;709;-41
2022/05/29 11:55:03;;;;;;;;;;;;;;;29.19;33.40;100239.66;4990174;28;1085;-40
2022/05/29 11:57:49;;;;;;;;;;;;;;;29.24;33.40;100236.31;5078823;28;813;-39
2022/05/29 12:00:14;;;;;;;;;;;;;;;29.20;33.53;100230.47;5062917;28;1341;-45
2022/05/29 12:02:46;;;;;;;;;;;;;;;29.17;33.51;100220.06;5079089;28;904;-44
2022/05/29 12:05:29;;;;;;;;;;;;;;;29.18;33.61;100229.84;5079100;28;825;-43
2022/05/29 12:07:57;;;;;;;;;;;;;;;29.06;33.94;100213.38;5078980;28;851;-44
2022/05/29 12:10:23;;;;;;;;;;;;;;;29.06;33.83;100216.09;5060941;28;786;-45
2022/05/29 12:13:00;;;;;;;;;;;;;;;29.04;34.15;100196.53;5078853;28;1941;-43
2022/05/29 12:15:25;;;;;;;;;;;;;;;29.03;34.43;100204.88;5078794;28;877;-42
2022/05/29 12:17:52;;;;;;;;;;;;;;;29.02;34.51;100200.47;5060945;28;825;-45
2022/05/29 12:20:19;;;;;;;;;;;;;;;29.05;34.33;100195.47;5060865;28;778;-43
2022/05/29 12:22:55;;;;;;;;;;;;;;;29.02;34.34;100200.47;5077592;28;926;-43
2022/05/29 12:25:37;;;;;;;;;;;;;;;29.04;34.31;100206.53;5060753;28;786;-43
2022/05/29 12:28:04;;;;;;;;;;;;;;;29.01;34.33;100209.66;5052541;28;849;-44
2022/05/29 12:30:49;;;;;;;;;;;;;;;29.05;34.24;100200.91;5057397;28;742;-43
2022/05/29 12:33:18;;;;;;;;;;;;;;;29.02;34.24;100206.72;5053709;28;1979;-45
2022/05/29 12:35:52;;;;;;;;;;;;;;;29.04;34.00;100201.94;5058264;28;837;-43
2022/05/29 12:38:20;;;;;;;;;;;;;;;29.05;34.18;100208.19;5057209;28;833;-42
2022/05/29 12:40:45;;;;;;;;;;;;;;;29.03;34.40;100208.38;5058543;28;841;-43
2022/05/29 12:43:17;;;;;;;;;;;;;;;29.01;34.50;100198.81;5058442;28;876;-43
2022/05/29 12:46:01;;;;;;;;;;;;;;;29.00;34.48;100202.56;5058264;28;880;-43
2022/05/29 12:48:45;;;;;;;;;;;;;;;28.96;34.42;100199.44;5057949;28;860;-43
2022/05/29 12:51:29;;;;;;;;;;;;;;;28.98;34.21;100199.25;5053235;28;805;-43
2022/05/29 12:53:54;;;;;;;;;;;;;;;29.02;34.33;100198.63;5057788;28;2037;-43
2022/05/29 12:56:24;;;;;;;;;;;;;;;29.04;34.28;100198.41;5058335;28;777;-43
2022/05/29 12:59:04;;;;;;;;;;;;;;;28.99;34.26;100185.50;5057997;28;850;-43
2022/05/29 13:01:44;;;;;;;;;;;;;;;28.96;34.66;100194.00;5056461;28;936;-43
2022/05/29 13:04:15;;;;;;;;;;;;;;;28.98;34.56;100191.13;5051765;28;834;-43
2022/05/29 13:06:50;;;;;;;;;;;;;;;29.00;34.59;100192.56;5057904;28;858;-43
2022/05/29 13:09:25;;;;;;;;;;;;;;;29.00;34.43;100187.16;5058016;28;761;-43
2022/05/29 13:11:54;;;;;;;;;;;;;;;28.99;34.89;100181.94;5057115;28;837;-42
2022/05/29 13:14:20;;;;;;;;;;;;;;;29.00;34.95;100167.34;5057211;28;1976;-43
2022/05/29 13:16:46;;;;;;;;;;;;;;;28.92;34.85;100158.41;5057067;28;1231;-44
2022/05/29 13:19:15;;;;;;;;;;;;;;;28.93;34.92;100165.47;5056347;28;909;-43
2022/05/29 13:22:02;;;;;;;;;;;;;;;29.00;34.76;100159.22;5057682;28;837;-45
2022/05/29 13:24:28;;;;;;;;;;;;;;;28.98;34.73;100169.47;5057280;28;839;-43
2022/05/29 13:27:19;;;;;;;;;;;;;;;29.01;34.59;100172.56;5067490;28;1091;-43
2022/05/29 13:29:46;;;;;;;;;;;;;;;29.01;34.84;100193.41;5067685;28;1281;-42
2022/05/29 13:32:14;;;;;;;;;;;;;;;29.00;34.59;100187.16;5076851;28;982;-44
2022/05/29 13:34:40;;;;;;;;;;;;;;;29.00;34.76;100175.47;5076993;28;1965;-42
2022/05/29 13:37:06;;;;;;;;;;;;;;;28.96;35.02;100181.28;5077448;28;760;-43
2022/05/29 13:39:36;;;;;;;;;;;;;;;29.00;35.00;100187.16;5076878;28;1000;-45
2022/05/29 13:42:01;;;;;;;;;;;;;;;29.01;35.18;100188.00;5077314;28;790;-43